Time;durP1;ratioP1;P1;durP2;ratioP2;P2;SDS_P1;SDS_P2;PMS_P1;PMS_P2;Temp;Humidity;BMP_temperature;BMP_pressure;BME280_temperature;BME280_humidity;BME280_pressure;Samples;Min_cycle;Max_cycle;Signal;HPM_P1;HPM_P2
2023/05/19 00:01:49;;;;;;;5.95;2.90;;;14.00;83.70;;;;;;4919678;29;20242;-86
2023/05/19 00:04:15;;;;;;;5.70;3.38;;;14.20;84.30;;;;;;4922210;29;20185;-86
2023/05/19 00:06:43;;;;;;;5.97;2.85;;;14.20;85.80;;;;;;4921456;29;20681;-86
2023/05/19 00:09:10;;;;;;;4.20;2.70;;;14.20;85.10;;;;;;4921965;29;20186;-86
2023/05/19 00:11:38;;;;;;;3.20;2.83;;;14.20;85.60;;;;;;4921150;29;20227;-84
2023/05/19 00:14:06;;;;;;;5.85;2.80;;;14.30;86.30;;;;;;4922979;29;20181;-84
2023/05/19 00:16:32;;;;;;;5.75;3.00;;;13.80;85.30;;;;;;4921325;29;20224;-84
2023/05/19 00:18:59;;;;;;;4.03;2.88;;;13.90;85.20;;;;;;4921837;29;20185;-84
2023/05/19 00:21:25;;;;;;;3.05;2.72;;;13.60;85.60;;;;;;4920838;29;20214;-84
2023/05/19 00:23:51;;;;;;;4.93;3.00;;;13.50;86.30;;;;;;4922498;29;20689;-84
2023/05/19 00:26:17;;;;;;;3.17;2.63;;;13.90;87.50;;;;;;4920610;29;20186;-84
2023/05/19 00:28:42;;;;;;;4.77;2.50;;;13.70;86.30;;;;;;4923734;29;20192;-84
2023/05/19 00:31:08;;;;;;;4.23;2.57;;;13.60;87.30;;;;;;4923082;29;20476;-84
2023/05/19 00:33:34;;;;;;;5.20;3.13;;;14.00;88.80;;;;;;4938253;29;20203;-84
2023/05/19 00:36:03;;;;;;;4.93;2.97;;;13.70;88.70;;;;;;4928323;29;20193;-84
2023/05/19 00:38:34;;;;;;;4.55;2.80;;;13.70;88.80;;;;;;4925026;29;20217;-84
2023/05/19 00:41:01;;;;;;;6.07;3.45;;;13.80;88.70;;;;;;4920650;29;20190;-84
2023/05/19 00:43:26;;;;;;;3.58;3.00;;;14.70;90.10;;;;;;4921564;29;20197;-85
2023/05/19 00:45:52;;;;;;;4.23;2.80;;;13.40;89.70;;;;;;4924642;29;20197;-84
2023/05/19 00:48:18;;;;;;;3.83;2.87;;;13.50;90.20;;;;;;4924350;29;20189;-83
2023/05/19 00:50:44;;;;;;;3.27;2.80;;;13.50;90.70;;;;;;4924612;29;20210;-85
2023/05/19 00:53:10;;;;;;;5.22;3.47;;;13.20;90.70;;;;;;4919893;29;20690;-86
2023/05/19 00:55:39;;;;;;;3.67;2.95;;;13.30;90.90;;;;;;4923965;29;20208;-85
2023/05/19 00:58:05;;;;;;;5.30;3.20;;;13.30;90.80;;;;;;4919990;29;20185;-85
2023/05/19 01:00:31;;;;;;;5.43;3.00;;;13.10;90.90;;;;;;4921364;29;20182;-85
2023/05/19 01:02:57;;;;;;;3.80;3.10;;;13.10;91.40;;;;;;4922674;29;20223;-85
2023/05/19 01:05:22;;;;;;;4.23;2.93;;;13.40;90.90;;;;;;4922897;29;20186;-85
2023/05/19 01:07:52;;;;;;;3.30;2.87;;;13.10;91.20;;;;;;4915097;29;20201;-85
2023/05/19 01:10:18;;;;;;;5.50;3.50;;;13.30;91.40;;;;;;4924961;29;20188;-85
2023/05/19 01:12:45;;;;;;;6.78;3.30;;;13.10;91.90;;;;;;4915469;29;20666;-85
2023/05/19 01:15:11;;;;;;;3.42;3.13;;;13.50;92.10;;;;;;4920918;29;20679;-85
2023/05/19 01:17:41;;;;;;;4.28;2.95;;;12.80;92.10;;;;;;4923025;29;20197;-85
2023/05/19 01:20:24;;;;;;;4.13;3.00;;;13.00;92.00;;;;;;4931065;29;20186;-85
2023/05/19 01:23:27;;;;;;;4.63;3.25;;;13.10;92.60;;;;;;4918637;29;20202;-85
2023/05/19 01:26:14;;;;;;;3.80;2.53;;;12.90;92.50;;;;;;4922585;29;20197;-85
2023/05/19 01:29:05;;;;;;;7.10;2.83;;;13.10;91.30;;;;;;4923314;29;20563;-85
2023/05/19 01:31:32;;;;;;;5.30;3.10;;;13.10;91.10;;;;;;4921319;29;20206;-85
2023/05/19 01:33:59;;;;;;;3.60;3.30;;;13.30;91.30;;;;;;4931071;29;20182;-85
2023/05/19 01:36:25;;;;;;;3.75;2.75;;;13.60;91.30;;;;;;4924250;29;20188;-85
2023/05/19 01:38:54;;;;;;;4.55;3.10;;;13.20;91.30;;;;;;4927899;29;20686;-85
2023/05/19 01:41:21;;;;;;;6.25;2.85;;;13.00;90.90;;;;;;4921571;29;20237;-85
2023/05/19 01:43:48;;;;;;;3.08;2.72;;;13.40;90.70;;;;;;4939800;29;20241;-85
2023/05/19 01:46:15;;;;;;;3.13;2.30;;;13.50;90.90;;;;;;4915262;29;20638;-85
2023/05/19 01:48:42;;;;;;;4.07;2.65;;;13.20;90.60;;;;;;4915629;29;20194;-85
2023/05/19 01:51:07;;;;;;;4.35;3.40;;;13.30;90.90;;;;;;4939190;29;20214;-85
2023/05/19 01:53:33;;;;;;;4.43;3.20;;;13.70;91.50;;;;;;4931585;29;20216;-85
2023/05/19 01:55:59;;;;;;;5.57;3.40;;;13.30;91.50;;;;;;4933936;29;20204;-85
2023/05/19 01:58:39;;;;;;;4.50;2.70;;;13.10;91.50;;;;;;4920973;29;20241;-85
2023/05/19 02:01:23;;;;;;;5.25;3.28;;;13.40;90.30;;;;;;4934353;29;20217;-85
2023/05/19 02:03:54;;;;;;;4.68;3.20;;;13.30;90.50;;;;;;4924009;29;20189;-85
2023/05/19 02:06:46;;;;;;;5.93;3.40;;;13.50;90.70;;;;;;4937521;29;20193;-85
2023/05/19 02:09:21;;;;;;;3.90;3.10;;;13.30;90.80;;;;;;4921210;29;20193;-85
2023/05/19 02:12:02;;;;;;;5.50;3.17;;;13.30;90.90;;;;;;4939530;29;20225;-85
2023/05/19 02:14:32;;;;;;;4.65;2.95;;;13.00;90.50;;;;;;4927223;29;20196;-85
2023/05/19 02:16:58;;;;;;;4.70;3.20;;;13.30;90.60;;;;;;4924626;29;20189;-85
2023/05/19 02:19:29;;;;;;;4.10;2.60;;;13.40;90.70;;;;;;4924478;29;20185;-85
2023/05/19 02:21:55;;;;;;;4.03;2.80;;;13.30;90.80;;;;;;4919464;29;20472;-85
2023/05/19 02:24:21;;;;;;;5.37;3.03;;;13.30;90.70;;;;;;4922539;29;20197;-85
2023/05/19 02:26:48;;;;;;;3.88;3.00;;;13.20;90.90;;;;;;4922575;29;20445;-85
2023/05/19 02:29:13;;;;;;;3.80;3.10;;;13.20;90.90;;;;;;4921740;29;20253;-85
2023/05/19 02:31:39;;;;;;;4.00;3.13;;;13.30;90.90;;;;;;4938210;29;20306;-85
2023/05/19 02:34:04;;;;;;;3.40;2.83;;;13.40;91.00;;;;;;4921339;29;20201;-85
2023/05/19 02:36:34;;;;;;;3.43;3.13;;;13.30;91.00;;;;;;4921654;29;20190;-85
2023/05/19 02:39:00;;;;;;;4.15;3.15;;;13.00;91.10;;;;;;4915539;29;20275;-85
2023/05/19 02:41:26;;;;;;;4.10;2.90;;;13.40;91.30;;;;;;4918929;29;20254;-85
2023/05/19 02:43:52;;;;;;;4.00;3.50;;;13.00;91.30;;;;;;4920686;29;20197;-85
2023/05/19 02:46:17;;;;;;;3.30;3.00;;;13.30;91.50;;;;;;4920000;29;20457;-85
2023/05/19 02:48:43;;;;;;;6.40;3.40;;;13.00;91.80;;;;;;4935935;29;20197;-85
2023/05/19 02:51:08;;;;;;;5.40;3.23;;;12.90;91.70;;;;;;4918331;29;20220;-85
2023/05/19 02:53:35;;;;;;;3.88;3.00;;;13.50;92.20;;;;;;4919696;29;20225;-85
2023/05/19 02:56:01;;;;;;;3.47;2.87;;;;;;;;;;4916158;29;20673;-85
2023/05/19 02:58:27;;;;;;;2.97;2.70;;;13.30;91.50;;;;;;4922958;29;20877;-84
2023/05/19 03:00:52;;;;;;;3.87;2.93;;;13.20;91.70;;;;;;4917399;29;20552;-85
2023/05/19 03:03:18;;;;;;;5.57;3.30;;;13.00;91.70;;;;;;4922941;29;20209;-85
2023/05/19 03:05:44;;;;;;;3.93;3.40;;;13.10;92.10;;;;;;4919077;29;20222;-85
2023/05/19 03:08:10;;;;;;;4.18;3.20;;;13.00;92.10;;;;;;4917722;29;20193;-85
2023/05/19 03:10:35;;;;;;;6.30;3.47;;;12.70;92.10;;;;;;4924210;29;20802;-85
2023/05/19 03:13:01;;;;;;;5.07;3.63;;;13.30;92.40;;;;;;4918621;29;20197;-85
2023/05/19 03:15:26;;;;;;;3.70;3.10;;;13.00;92.60;;;;;;4921942;29;20182;-85
2023/05/19 03:17:52;;;;;;;4.87;4.20;;;13.20;92.90;;;;;;4924830;29;20205;-85
2023/05/19 03:20:17;;;;;;;4.50;3.17;;;12.70;92.70;;;;;;4926275;29;20647;-85
2023/05/19 03:22:43;;;;;;;6.30;3.10;;;13.00;92.80;;;;;;4923459;29;20213;-85
2023/05/19 03:25:09;;;;;;;5.23;3.30;;;12.60;93.00;;;;;;4925812;29;20261;-85
2023/05/19 03:27:34;;;;;;;8.60;3.80;;;12.80;93.10;;;;;;4926356;29;20284;-84
2023/05/19 03:30:00;;;;;;;3.50;2.87;;;12.80;93.10;;;;;;4925778;29;20216;-86
2023/05/19 03:32:26;;;;;;;5.03;3.30;;;12.80;93.40;;;;;;4923057;29;20271;-85
2023/05/19 03:34:51;;;;;;;4.20;3.50;;;12.60;93.20;;;;;;4925532;29;20201;-85
2023/05/19 03:37:17;;;;;;;4.13;3.00;;;12.70;93.40;;;;;;4923272;29;20240;-85
2023/05/19 03:39:42;;;;;;;6.67;3.20;;;12.50;93.60;;;;;;4926588;29;20288;-85
2023/05/19 03:42:08;;;;;;;7.03;3.07;;;12.80;94.00;;;;;;4923432;29;20216;-85
2023/05/19 03:44:33;;;;;;;4.20;3.40;;;12.20;93.80;;;;;;4921908;29;20337;-85
2023/05/19 03:46:59;;;;;;;4.23;3.20;;;12.50;93.80;;;;;;4941865;29;20200;-85
2023/05/19 03:49:24;;;;;;;5.33;3.90;;;12.20;94.10;;;;;;4925097;29;21477;-85
2023/05/19 03:51:50;;;;;;;5.90;3.33;;;12.20;94.40;;;;;;4921219;29;20221;-85
2023/05/19 03:54:15;;;;;;;4.73;3.20;;;12.50;94.70;;;;;;4920645;29;20662;-85
2023/05/19 03:56:42;;;;;;;4.53;3.73;;;12.40;95.10;;;;;;4926836;29;20204;-85
2023/05/19 03:59:09;;;;;;;4.25;3.13;;;12.50;95.20;;;;;;4924527;29;20192;-85
2023/05/19 04:01:36;;;;;;;3.95;3.40;;;12.40;94.90;;;;;;4920251;29;20691;-85
2023/05/19 04:04:03;;;;;;;4.45;3.30;;;11.80;95.00;;;;;;4910592;29;20211;-84
2023/05/19 04:06:36;;;;;;;6.82;4.00;;;12.30;95.50;;;;;;4929776;29;20189;-83
2023/05/19 04:09:10;;;;;;;3.40;3.10;;;12.20;95.30;;;;;;4925321;29;20251;-83
2023/05/19 04:11:36;;;;;;;4.43;3.95;;;12.20;95.50;;;;;;4938422;23;21021;-63
2023/05/19 04:14:01;;;;;;;6.43;4.00;;;12.30;95.40;;;;;;4953195;28;20231;-63
2023/05/19 04:16:27;;;;;;;4.27;3.60;;;12.30;95.90;;;;;;4954002;28;20284;-63
2023/05/19 04:18:53;;;;;;;5.97;3.60;;;12.30;95.80;;;;;;4952713;28;20189;-63
2023/05/19 04:21:21;;;;;;;4.50;3.47;;;12.20;96.10;;;;;;4948448;28;21062;-63
2023/05/19 04:23:47;;;;;;;11.32;7.32;;;12.50;96.50;;;;;;4935845;29;20228;-63
2023/05/19 04:26:13;;;;;;;6.60;3.93;;;12.30;96.60;;;;;;4950430;29;20176;-64
2023/05/19 04:28:41;;;;;;;3.83;3.42;;;12.40;96.50;;;;;;4944144;28;20496;-63
2023/05/19 04:31:09;;;;;;;5.57;2.92;;;12.40;96.50;;;;;;4949993;28;20228;-63
2023/05/19 04:33:35;;;;;;;6.30;3.97;;;12.40;96.50;;;;;;4950430;28;20231;-63
2023/05/19 04:36:04;;;;;;;5.22;3.67;;;12.50;96.00;;;;;;4943097;28;20189;-63
2023/05/19 04:38:30;;;;;;;7.82;3.53;;;12.60;95.90;;;;;;4929701;29;20678;-63
2023/05/19 04:40:56;;;;;;;5.07;3.87;;;12.50;95.80;;;;;;4948634;29;20228;-63
2023/05/19 04:43:21;;;;;;;5.90;4.40;;;12.70;96.00;;;;;;4943753;29;20218;-63
2023/05/19 04:45:49;;;;;;;4.30;3.30;;;12.70;95.70;;;;;;4945735;28;20193;-63
2023/05/19 04:48:14;;;;;;;6.35;3.42;;;12.70;95.70;;;;;;4946312;29;20192;-63
2023/05/19 04:50:41;;;;;;;5.80;3.30;;;12.90;95.80;;;;;;4945444;29;20307;-63
2023/05/19 04:53:08;;;;;;;4.70;3.70;;;12.90;95.60;;;;;;4945033;28;20465;-63
2023/05/19 04:55:34;;;;;;;7.55;4.75;;;12.80;95.30;;;;;;4948300;29;20673;-63
2023/05/19 04:57:59;;;;;;;6.10;3.43;;;12.80;95.10;;;;;;4949279;28;20193;-61
2023/05/19 05:00:25;;;;;;;5.67;4.03;;;12.80;95.00;;;;;;4945472;28;21166;-63
2023/05/19 05:02:51;;;;;;;6.70;4.77;;;12.90;94.90;;;;;;4948093;29;20192;-63
2023/05/19 05:05:16;;;;;;;5.40;4.07;;;12.90;95.20;;;;;;4927898;28;20196;-64
2023/05/19 05:07:42;;;;;;;8.60;3.70;;;12.70;95.20;;;;;;4947895;28;20220;-63
2023/05/19 05:10:08;;;;;;;8.23;6.07;;;13.10;94.90;;;;;;4944873;29;20646;-63
2023/05/19 05:12:34;;;;;;;7.15;4.60;;;13.10;95.10;;;;;;4945062;28;20228;-63
2023/05/19 05:15:00;;;;;;;4.20;3.53;;;13.30;95.00;;;;;;4943367;28;20193;-63
2023/05/19 05:17:27;;;;;;;4.40;3.90;;;13.00;94.70;;;;;;4950088;28;20453;-63
2023/05/19 05:19:53;;;;;;;5.50;4.00;;;13.20;94.60;;;;;;4949200;29;20443;-63
2023/05/19 05:22:18;;;;;;;4.03;3.60;;;13.30;94.50;;;;;;4944749;28;20721;-61
2023/05/19 05:24:44;;;;;;;6.47;3.83;;;13.20;94.40;;;;;;4943849;28;20187;-63
2023/05/19 05:27:10;;;;;;;5.13;4.63;;;13.50;94.00;;;;;;4947062;28;20444;-63
2023/05/19 05:29:36;;;;;;;5.17;3.50;;;13.40;93.80;;;;;;4942563;28;20562;-63
2023/05/19 05:32:01;;;;;;;6.03;4.07;;;13.20;94.60;;;;;;4942574;29;20690;-63
2023/05/19 05:34:27;;;;;;;5.40;3.67;;;13.20;94.80;;;;;;4946687;28;20189;-62
2023/05/19 05:36:53;;;;;;;4.83;4.30;;;13.20;94.70;;;;;;4944472;28;20196;-62
2023/05/19 05:39:19;;;;;;;6.53;4.40;;;13.60;94.10;;;;;;4944580;28;20185;-62
2023/05/19 05:41:44;;;;;;;8.20;4.57;;;13.30;94.00;;;;;;4944358;29;20211;-62
2023/05/19 05:44:10;;;;;;;3.40;3.00;;;13.40;93.70;;;;;;4942731;29;20555;-62
2023/05/19 05:46:36;;;;;;;4.30;3.60;;;13.00;93.20;;;;;;4939833;28;20271;-62
2023/05/19 05:49:01;;;;;;;5.43;3.90;;;13.40;93.60;;;;;;4945782;29;20185;-62
2023/05/19 05:51:27;;;;;;;5.57;4.20;;;13.50;93.90;;;;;;4939552;29;20290;-63
2023/05/19 05:53:54;;;;;;;6.90;3.80;;;13.30;93.80;;;;;;4948309;29;20858;-63
2023/05/19 05:56:20;;;;;;;6.38;3.90;;;13.30;94.00;;;;;;4945768;29;20452;-66
2023/05/19 05:58:46;;;;;;;4.82;3.70;;;13.30;94.30;;;;;;4947533;29;20189;-67
2023/05/19 06:01:12;;;;;;;5.22;3.40;;;13.40;94.30;;;;;;4939141;28;20226;-69
2023/05/19 06:03:40;;;;;;;5.03;3.63;;;13.50;93.90;;;;;;4947216;29;20192;-65
2023/05/19 06:06:07;;;;;;;6.57;4.20;;;13.50;93.60;;;;;;4936236;29;20446;-67
2023/05/19 06:08:32;;;;;;;6.30;4.40;;;13.50;93.40;;;;;;4946822;28;20216;-66
2023/05/19 06:10:58;;;;;;;7.17;3.63;;;13.50;93.50;;;;;;4948748;28;20217;-66
2023/05/19 06:13:24;;;;;;;7.80;4.50;;;13.70;94.00;;;;;;4947001;28;20189;-67
2023/05/19 06:15:50;;;;;;;5.57;3.85;;;13.70;93.90;;;;;;4941402;28;20220;-67
2023/05/19 06:18:16;;;;;;;4.50;4.05;;;13.90;93.30;;;;;;4947392;28;20538;-67
2023/05/19 06:20:42;;;;;;;6.80;3.60;;;14.20;92.90;;;;;;4931663;29;20236;-67
2023/05/19 06:23:07;;;;;;;6.50;5.90;;;14.50;92.60;;;;;;4945626;28;20196;-67
2023/05/19 06:25:33;;;;;;;5.00;4.03;;;14.40;92.50;;;;;;4948284;29;20279;-67
2023/05/19 06:27:59;;;;;;;5.73;4.00;;;14.40;92.90;;;;;;4948027;29;20216;-69
2023/05/19 06:30:24;;;;;;;6.20;4.13;;;14.60;92.30;;;;;;4946849;28;20694;-68
2023/05/19 06:32:50;;;;;;;6.10;4.30;;;14.60;92.40;;;;;;4948453;29;20267;-68
2023/05/19 06:35:16;;;;;;;5.60;4.07;;;14.90;92.00;;;;;;4945212;29;20223;-68
2023/05/19 06:37:41;;;;;;;4.53;3.80;;;14.90;92.10;;;;;;4936718;28;20654;-74
2023/05/19 06:40:07;;;;;;;5.30;3.90;;;14.40;91.50;;;;;;4930571;29;20181;-74
2023/05/19 06:42:33;;;;;;;5.60;4.00;;;14.80;92.00;;;;;;4939641;29;20207;-76
2023/05/19 06:44:59;;;;;;;5.47;3.43;;;14.70;92.00;;;;;;4927943;28;20673;-67
2023/05/19 06:47:24;;;;;;;6.67;4.03;;;14.80;92.30;;;;;;4945934;28;20185;-68
2023/05/19 06:49:53;;;;;;;5.47;4.70;;;15.10;92.20;;;;;;4941281;28;20204;-69
2023/05/19 06:52:20;;;;;;;5.25;3.90;;;15.20;91.50;;;;;;4939719;28;20215;-67
2023/05/19 06:54:45;;;;;;;8.75;6.65;;;15.00;91.70;;;;;;4945790;28;20189;-69
2023/05/19 06:57:11;;;;;;;7.53;4.40;;;15.20;91.60;;;;;;4946690;29;20193;-69
2023/05/19 06:59:39;;;;;;;4.82;3.85;;;15.50;91.20;;;;;;4938365;28;20193;-69
2023/05/19 07:02:07;;;;;;;4.50;3.72;;;15.60;90.50;;;;;;4936621;28;20209;-68
2023/05/19 07:04:32;;;;;;;5.35;3.97;;;15.70;90.70;;;;;;4942900;28;20193;-71
2023/05/19 07:06:58;;;;;;;4.67;3.80;;;15.90;91.20;;;;;;4943690;28;20192;-69
2023/05/19 07:09:24;;;;;;;4.90;4.40;;;16.10;89.60;;;;;;4943133;28;20197;-72
2023/05/19 07:11:49;;;;;;;5.03;3.83;;;16.30;89.40;;;;;;4928379;29;20589;-72
2023/05/19 07:14:15;;;;;;;5.38;4.00;;;16.60;89.00;;;;;;4946343;28;21255;-67
2023/05/19 07:16:40;;;;;;;4.57;3.90;;;16.50;88.10;;;;;;4944612;28;20662;-68
2023/05/19 07:19:06;;;;;;;4.13;3.70;;;16.40;87.90;;;;;;4943191;29;20184;-70
2023/05/19 07:21:32;;;;;;;6.77;4.20;;;16.60;88.00;;;;;;4943245;28;20213;-70
2023/05/19 07:23:57;;;;;;;4.87;3.90;;;16.30;88.60;;;;;;4939838;29;20279;-67
2023/05/19 07:26:23;;;;;;;6.97;4.10;;;16.30;89.00;;;;;;4943337;29;20204;-68
2023/05/19 07:28:48;;;;;;;7.47;4.07;;;16.40;89.80;;;;;;4941340;29;20196;-70
2023/05/19 07:31:14;;;;;;;3.80;3.50;;;16.00;89.60;;;;;;4943651;28;20775;-67
2023/05/19 07:33:40;;;;;;;6.90;4.43;;;16.10;90.30;;;;;;4941377;29;20608;-68
2023/05/19 07:36:05;;;;;;;4.70;3.90;;;16.10;90.00;;;;;;4942331;28;20220;-69
2023/05/19 07:38:33;;;;;;;6.00;3.93;;;16.20;89.90;;;;;;4945298;29;20189;-69
2023/05/19 07:40:59;;;;;;;5.35;3.70;;;16.30;90.00;;;;;;4941166;29;20201;-68
2023/05/19 07:43:25;;;;;;;3.67;3.35;;;16.30;90.00;;;;;;4940253;29;20184;-69
2023/05/19 07:45:52;;;;;;;4.23;3.67;;;16.70;89.40;;;;;;4942023;29;20541;-67
2023/05/19 07:48:21;;;;;;;7.55;3.47;;;16.80;88.00;;;;;;4946997;29;20795;-69
2023/05/19 07:50:47;;;;;;;4.68;3.58;;;16.50;87.60;;;;;;4942664;29;20300;-68
2023/05/19 07:53:13;;;;;;;5.50;3.75;;;16.60;88.10;;;;;;4945055;28;20193;-68
2023/05/19 07:55:38;;;;;;;5.20;3.70;;;16.40;87.90;;;;;;4937140;29;20619;-68
2023/05/19 07:58:04;;;;;;;4.57;4.10;;;16.30;88.00;;;;;;4942838;29;20449;-67
2023/05/19 08:00:30;;;;;;;5.50;3.40;;;16.30;88.40;;;;;;4943919;28;20216;-68
2023/05/19 08:02:56;;;;;;;5.90;3.80;;;16.00;88.90;;;;;;4944112;28;20192;-70
2023/05/19 08:05:22;;;;;;;3.85;3.47;;;16.10;89.00;;;;;;4933241;29;20173;-67
2023/05/19 08:07:48;;;;;;;4.43;3.50;;;16.40;88.70;;;;;;4949263;28;20244;-68
2023/05/19 08:10:14;;;;;;;5.77;4.30;;;16.10;88.00;;;;;;4952197;29;20925;-69
2023/05/19 08:12:39;;;;;;;4.80;3.55;;;16.10;88.70;;;;;;4946115;29;20475;-70
2023/05/19 08:15:06;;;;;;;5.30;4.20;;;16.20;88.80;;;;;;4948093;28;20673;-68
2023/05/19 08:17:32;;;;;;;3.60;3.30;;;16.20;88.50;;;;;;4931482;29;20217;-67
2023/05/19 08:19:57;;;;;;;5.07;3.40;;;16.10;88.20;;;;;;4946439;29;20288;-68
2023/05/19 08:22:23;;;;;;;4.40;4.00;;;16.10;88.60;;;;;;4930177;29;20264;-68
2023/05/19 08:24:50;;;;;;;9.30;4.47;;;15.90;88.60;;;;;;4948890;29;20236;-70
2023/05/19 08:27:16;;;;;;;7.40;3.50;;;16.10;88.90;;;;;;4948380;29;20192;-67
2023/05/19 08:29:41;;;;;;;5.30;3.80;;;16.20;88.90;;;;;;4948053;28;20236;-68
2023/05/19 08:32:07;;;;;;;4.87;3.40;;;16.20;88.70;;;;;;4951032;29;20741;-68
2023/05/19 08:34:33;;;;;;;4.47;3.90;;;16.30;88.70;;;;;;4944304;29;20945;-69
2023/05/19 08:36:58;;;;;;;3.93;3.53;;;16.10;87.90;;;;;;4948060;28;20378;-68
2023/05/19 08:39:26;;;;;;;6.60;3.80;;;15.90;89.20;;;;;;4945140;29;20204;-68
2023/05/19 08:41:55;;;;;;;4.25;3.72;;;16.10;88.00;;;;;;4948332;28;20213;-69
2023/05/19 08:44:21;;;;;;;4.30;3.80;;;15.90;87.80;;;;;;4949597;28;20197;-69
2023/05/19 08:46:48;;;;;;;5.50;3.15;;;16.00;88.70;;;;;;4946871;28;20202;-68
2023/05/19 08:49:16;;;;;;;6.65;4.32;;;16.10;87.60;;;;;;4946113;29;20316;-68
2023/05/19 08:51:54;;;;;;;7.85;3.90;;;16.10;88.30;;;;;;4944566;28;20219;-66
2023/05/19 08:54:29;;;;;;;4.85;3.60;;;16.00;88.10;;;;;;4949670;29;20598;-66
2023/05/19 08:56:54;;;;;;;3.83;3.22;;;16.20;87.70;;;;;;4946524;29;20187;-68
2023/05/19 08:59:21;;;;;;;4.10;3.70;;;16.20;87.10;;;;;;4942084;29;20224;-67
2023/05/19 09:01:47;;;;;;;5.60;3.60;;;16.40;87.30;;;;;;4945046;28;20558;-68
2023/05/19 09:04:14;;;;;;;3.95;3.45;;;16.10;86.80;;;;;;4944859;29;20791;-67
2023/05/19 09:06:40;;;;;;;3.97;3.45;;;16.20;87.30;;;;;;4949688;28;20280;-68
2023/05/19 09:09:06;;;;;;;7.63;3.60;;;16.20;87.00;;;;;;4928009;29;20288;-69
2023/05/19 09:11:34;;;;;;;5.22;3.38;;;16.20;86.60;;;;;;4950771;28;20232;-69
2023/05/19 09:14:00;;;;;;;6.65;3.55;;;16.10;86.80;;;;;;4949368;28;20558;-68
2023/05/19 09:16:26;;;;;;;4.37;3.43;;;16.30;87.10;;;;;;4943901;28;20208;-67
2023/05/19 09:18:56;;;;;;;7.63;3.57;;;16.10;87.20;;;;;;4945596;29;20197;-68
2023/05/19 09:21:31;;;;;;;4.18;3.78;;;16.40;87.20;;;;;;4928230;29;20464;-69
2023/05/19 09:24:05;;;;;;;4.28;3.70;;;16.40;87.50;;;;;;4941704;29;20197;-67
2023/05/19 09:26:40;;;;;;;7.82;4.00;;;16.40;88.80;;;;;;4948130;28;20188;-68
2023/05/19 09:29:14;;;;;;;9.02;3.63;;;16.50;87.10;;;;;;4941637;29;20694;-68
2023/05/19 09:32:03;;;;;;;5.55;3.30;;;16.90;86.70;;;;;;4941814;29;20340;-67
2023/05/19 09:34:29;;;;;;;6.95;3.70;;;16.80;86.60;;;;;;4947601;29;20241;-67
2023/05/19 09:36:56;;;;;;;5.05;3.53;;;16.60;86.10;;;;;;4942423;28;20285;-69
2023/05/19 09:39:23;;;;;;;5.75;3.53;;;16.50;86.70;;;;;;4945324;29;20187;-67
2023/05/19 09:41:54;;;;;;;4.53;3.47;;;16.30;86.10;;;;;;4941580;29;20304;-67
2023/05/19 09:44:19;;;;;;;4.10;3.70;;;16.20;86.50;;;;;;4944735;29;20191;-67
2023/05/19 09:46:49;;;;;;;4.50;3.60;;;16.50;86.90;;;;;;4942907;29;20552;-68
2023/05/19 09:49:22;;;;;;;6.93;3.78;;;16.90;87.30;;;;;;4941080;29;20448;-67
2023/05/19 09:51:50;;;;;;;4.72;3.90;;;16.80;85.90;;;;;;4930825;29;20236;-67
2023/05/19 09:54:16;;;;;;;4.40;3.88;;;16.90;85.60;;;;;;4943624;29;20256;-68
2023/05/19 09:56:42;;;;;;;4.20;3.80;;;17.00;86.40;;;;;;4946954;28;20588;-67
2023/05/19 09:59:07;;;;;;;6.50;3.67;;;16.80;85.70;;;;;;4943829;28;20181;-68
2023/05/19 10:01:35;;;;;;;5.53;3.97;;;16.90;85.70;;;;;;4943711;28;20524;-68
2023/05/19 10:04:02;;;;;;;6.05;3.70;;;16.90;85.60;;;;;;4946051;29;20189;-67
2023/05/19 10:06:28;;;;;;;4.25;3.80;;;16.90;85.80;;;;;;4943196;28;20193;-68
2023/05/19 10:08:54;;;;;;;4.93;3.53;;;17.00;85.60;;;;;;4940798;29;20276;-68
2023/05/19 10:11:22;;;;;;;4.50;3.42;;;17.10;85.50;;;;;;4944829;28;20627;-68
2023/05/19 10:13:50;;;;;;;7.63;3.60;;;17.10;84.90;;;;;;4945207;29;20194;-68
2023/05/19 10:16:17;;;;;;;6.90;4.28;;;17.20;85.20;;;;;;4944911;28;20181;-67
2023/05/19 10:18:43;;;;;;;5.05;3.60;;;17.00;84.90;;;;;;4939039;28;20185;-69
2023/05/19 10:21:09;;;;;;;6.80;3.20;;;17.20;85.00;;;;;;4949962;28;20748;-67
2023/05/19 10:23:35;;;;;;;5.45;3.60;;;17.00;85.20;;;;;;4947857;28;20590;-69
2023/05/19 10:26:03;;;;;;;5.27;3.70;;;17.10;84.70;;;;;;4941556;29;20770;-67
2023/05/19 10:28:35;;;;;;;4.25;3.85;;;17.00;85.10;;;;;;4942563;28;20248;-68
2023/05/19 10:31:05;;;;;;;7.75;3.80;;;16.80;85.20;;;;;;4942000;28;20220;-66
2023/05/19 10:33:55;;;;;;;7.90;3.80;;;16.50;85.20;;;;;;4947429;29;20267;-67
2023/05/19 10:36:36;;;;;;;4.40;3.55;;;16.50;85.80;;;;;;4939553;28;20245;-66
2023/05/19 10:39:17;;;;;;;6.25;3.42;;;16.90;86.00;;;;;;4945309;28;20185;-67
2023/05/19 10:42:04;;;;;;;5.60;3.80;;;16.80;85.50;;;;;;4943223;29;20613;-68
2023/05/19 10:44:52;;;;;;;6.55;3.25;;;16.80;85.70;;;;;;4943594;29;20196;-69
2023/05/19 10:47:28;;;;;;;7.78;3.60;;;17.00;85.70;;;;;;4944039;29;20594;-67
2023/05/19 10:49:54;;;;;;;6.57;3.40;;;16.70;86.10;;;;;;4943757;29;20217;-68
2023/05/19 10:52:22;;;;;;;6.13;3.67;;;16.60;86.60;;;;;;4947498;28;20236;-66
2023/05/19 10:54:47;;;;;;;4.85;3.33;;;16.50;85.90;;;;;;4945484;29;20251;-67
2023/05/19 10:57:17;;;;;;;5.50;3.27;;;16.40;86.20;;;;;;4945958;29;20618;-68
2023/05/19 10:59:46;;;;;;;6.90;4.35;;;16.60;86.40;;;;;;4928951;29;21008;-66
2023/05/19 11:02:41;;;;;;;5.40;3.33;;;16.60;85.70;;;;;;4941429;28;20355;-66
2023/05/19 11:05:16;;;;;;;3.53;3.03;;;16.40;86.30;;;;;;4946191;29;20196;-67
2023/05/19 11:07:53;;;;;;;3.90;3.60;;;16.50;86.70;;;;;;4944000;28;20208;-68
2023/05/19 11:10:24;;;;;;;5.80;3.40;;;17.00;85.30;;;;;;4941250;29;20240;-67
2023/05/19 11:12:51;;;;;;;5.72;4.63;;;16.80;85.20;;;;;;4939127;28;20217;-67
2023/05/19 11:15:16;;;;;;;12.40;8.25;;;16.60;84.80;;;;;;4923319;29;20185;-66
2023/05/19 11:17:47;;;;;;;10.13;5.07;;;16.70;86.20;;;;;;4939288;29;20239;-69
2023/05/19 11:20:29;;;;;;;5.05;3.55;;;16.90;85.40;;;;;;4939863;29;20264;-70
2023/05/19 11:23:09;;;;;;;6.97;4.05;;;16.80;85.90;;;;;;4927609;29;20563;-69
2023/05/19 11:25:42;;;;;;;5.18;3.30;;;16.90;85.50;;;;;;4940526;28;20197;-70
2023/05/19 11:28:10;;;;;;;6.88;6.18;;;17.00;84.70;;;;;;4944350;29;20193;-70
2023/05/19 11:30:37;;;;;;;5.88;3.65;;;17.20;84.60;;;;;;4943832;28;20217;-70
2023/05/19 11:33:03;;;;;;;6.15;3.42;;;17.20;84.20;;;;;;4938616;29;20244;-70
2023/05/19 11:35:31;;;;;;;4.10;3.65;;;17.00;84.10;;;;;;4928351;28;20610;-70
2023/05/19 11:37:58;;;;;;;3.60;3.30;;;17.00;85.10;;;;;;4942583;28;20752;-70
2023/05/19 11:40:25;;;;;;;4.40;3.45;;;16.90;85.30;;;;;;4944631;29;20181;-70
2023/05/19 11:42:51;;;;;;;4.18;3.78;;;17.00;84.80;;;;;;4946047;29;20527;-70
2023/05/19 11:45:16;;;;;;;4.63;3.73;;;16.80;84.70;;;;;;4946906;28;20192;-69
2023/05/19 11:47:45;;;;;;;3.50;3.20;;;16.50;84.20;;;;;;4949093;28;20184;-69
2023/05/19 11:50:11;;;;;;;3.92;3.58;;;16.60;84.60;;;;;;4947833;29;20197;-69
2023/05/19 11:52:42;;;;;;;4.40;4.00;;;16.60;84.60;;;;;;4942904;28;20300;-69
2023/05/19 11:55:08;;;;;;;4.15;3.65;;;16.80;85.20;;;;;;4942306;29;20191;-69
2023/05/19 11:57:35;;;;;;;3.47;3.13;;;16.60;84.60;;;;;;4950611;29;20272;-69
2023/05/19 12:00:01;;;;;;;5.13;3.70;;;16.60;85.30;;;;;;4946307;28;20252;-72
2023/05/19 12:02:29;;;;;;;6.22;3.97;;;16.50;85.20;;;;;;4943326;28;20220;-71
2023/05/19 12:04:54;;;;;;;4.57;3.70;;;16.50;85.80;;;;;;4950497;28;20194;-64
2023/05/19 12:07:22;;;;;;;4.03;3.63;;;16.80;85.60;;;;;;4947337;28;20259;-65
2023/05/19 12:09:49;;;;;;;4.07;3.53;;;16.80;85.50;;;;;;4950500;28;20276;-66
2023/05/19 12:12:17;;;;;;;4.45;3.70;;;16.70;85.20;;;;;;4948808;29;20580;-65
2023/05/19 12:14:45;;;;;;;5.80;3.88;;;16.70;84.60;;;;;;4945506;28;20191;-68
2023/05/19 12:17:12;;;;;;;5.63;3.60;;;16.90;85.20;;;;;;4948057;29;20611;-69
2023/05/19 12:19:38;;;;;;;5.20;4.13;;;16.30;84.70;;;;;;4947428;28;20308;-68
2023/05/19 12:22:05;;;;;;;5.38;4.00;;;16.60;85.50;;;;;;4930852;29;20200;-69
2023/05/19 12:24:35;;;;;;;5.30;3.65;;;16.80;85.00;;;;;;4944943;29;20911;-67
2023/05/19 12:27:06;;;;;;;4.40;4.00;;;16.90;85.00;;;;;;4939198;28;20654;-68
2023/05/19 12:29:31;;;;;;;5.00;4.50;;;16.70;84.90;;;;;;4948030;29;20548;-70
2023/05/19 12:31:57;;;;;;;5.20;3.97;;;17.00;85.20;;;;;;4943320;28;20209;-68
2023/05/19 12:34:23;;;;;;;7.20;4.10;;;16.70;85.30;;;;;;4947890;29;20670;-68
2023/05/19 12:36:49;;;;;;;6.80;4.10;;;16.60;85.80;;;;;;4945342;28;20192;-68
2023/05/19 12:39:14;;;;;;;4.20;3.80;;;16.80;85.20;;;;;;4946897;28;20198;-69
2023/05/19 12:41:43;;;;;;;4.20;3.80;;;17.10;85.70;;;;;;4946250;29;20647;-68
2023/05/19 12:44:14;;;;;;;5.30;4.10;;;16.80;85.30;;;;;;4948263;29;20228;-68
2023/05/19 12:46:40;;;;;;;4.70;4.00;;;16.80;85.40;;;;;;4944095;28;20215;-70
2023/05/19 12:49:05;;;;;;;4.37;3.97;;;16.90;85.60;;;;;;4947727;28;20185;-69
2023/05/19 12:51:31;;;;;;;5.70;4.33;;;17.00;86.30;;;;;;4943819;28;20332;-69